Airport View

Enter AWOS ICAO identifier for current METAR.

ex. KFNL

PMDY 111856Z AUTO 03010G18KT 10SM SCT045 SCT055 18/10 A3040 RMK AO2 SLP294 T01830100

11 Dec 2019 19:04

Frequency: 118.325

Phone: 808 674-9286

TAF PMDY 111720Z 1118/1218 04010KT P6SM SCT030 BKN045